Time;durP1;ratioP1;P1;durP2;ratioP2;P2;SDS_P1;SDS_P2;PMS_P1;PMS_P2;Temp;Humidity;BMP_temperature;BMP_pressure;BME280_temperature;BME280_humidity;BME280_pressure;Samples;Min_cycle;Max_cycle;Signal;HPM_P1;HPM_P2
2022/06/04 00:01:45;;;;;;;0.65;0.50;;;9.20;99.90;;;;;;5053341;28;20037;-70
2022/06/04 00:04:14;;;;;;;1.67;0.60;;;9.30;99.90;;;;;;5053361;28;20022;-76
2022/06/04 00:06:42;;;;;;;2.25;1.00;;;9.30;99.90;;;;;;5054267;28;20035;-76
2022/06/04 00:09:11;;;;;;;1.38;0.75;;;9.30;99.90;;;;;;5064430;28;20039;-82
2022/06/04 00:17:07;;;;;;;1.02;0.63;;;9.50;99.90;;;;;;5053524;28;20068;-76
2022/06/04 00:19:35;;;;;;;3.33;0.60;;;9.60;99.90;;;;;;5052462;28;20039;-75
2022/06/04 00:22:04;;;;;;;1.98;0.75;;;9.70;99.90;;;;;;5053804;28;20040;-73
2022/06/04 00:24:31;;;;;;;1.02;0.60;;;9.70;99.90;;;;;;5050957;28;20021;-74
2022/06/04 00:26:59;;;;;;;2.53;0.65;;;9.80;99.90;;;;;;5055119;28;20130;-76
2022/06/04 00:29:26;;;;;;;1.05;0.73;;;9.80;99.90;;;;;;5052321;28;20029;-76
2022/06/04 00:31:54;;;;;;;0.88;0.50;;;9.80;99.90;;;;;;5052971;28;20024;-73
2022/06/04 00:34:21;;;;;;;0.85;0.50;;;9.90;99.90;;;;;;5052957;28;20029;-74
2022/06/04 00:36:48;;;;;;;1.08;0.60;;;9.90;99.90;;;;;;5052994;28;20072;-76
2022/06/04 00:39:16;;;;;;;0.88;0.70;;;9.90;99.90;;;;;;5051941;28;20028;-74
2022/06/04 00:42:09;;;;;;;1.48;0.60;;;10.00;99.90;;;;;;5052187;28;20519;-74
2022/06/04 00:45:13;;;;;;;0.77;0.60;;;10.00;99.90;;;;;;5051362;28;20044;-76
2022/06/04 00:47:41;;;;;;;0.82;0.65;;;10.10;99.90;;;;;;5051764;28;20051;-73
2022/06/04 00:50:09;;;;;;;1.90;0.65;;;10.10;99.90;;;;;;5052230;28;20032;-73
2022/06/04 00:52:37;;;;;;;1.60;0.60;;;10.20;99.90;;;;;;5052299;28;20478;-72
2022/06/04 00:55:07;;;;;;;4.22;0.60;;;10.30;99.90;;;;;;5049599;28;20029;-72
2022/06/04 00:58:02;;;;;;;3.60;0.70;;;10.30;99.90;;;;;;5052212;28;20108;-76
2022/06/04 01:00:42;;;;;;;1.77;0.77;;;10.40;99.90;;;;;;5050226;28;20017;-75
2022/06/04 01:03:49;;;;;;;2.90;0.70;;;10.40;99.90;;;;;;5050182;28;20021;-76
2022/06/04 01:06:42;;;;;;;0.70;0.50;;;10.40;99.90;;;;;;5051335;28;20021;-72
2022/06/04 01:09:30;;;;;;;2.28;0.80;;;10.50;99.90;;;;;;5048639;28;20151;-72
2022/06/04 01:12:09;;;;;;;0.88;0.60;;;10.60;99.90;;;;;;5051329;28;20033;-73
2022/06/04 01:15:03;;;;;;;1.70;0.77;;;10.60;99.90;;;;;;5051017;28;20382;-75
2022/06/04 01:17:53;;;;;;;0.73;0.70;;;10.70;99.90;;;;;;5050188;28;20025;-76
2022/06/04 01:20:36;;;;;;;1.58;0.85;;;10.70;99.90;;;;;;5051063;28;20027;-76
2022/06/04 01:23:24;;;;;;;1.15;0.50;;;10.70;99.90;;;;;;5051751;28;20029;-76
2022/06/04 01:26:25;;;;;;;0.40;0.40;;;10.80;99.90;;;;;;5050027;28;20373;-75
2022/06/04 01:28:58;;;;;;;0.32;0.30;;;10.90;99.90;;;;;;5050756;28;20029;-72
2022/06/04 01:31:37;;;;;;;0.45;0.32;;;10.90;99.90;;;;;;5047929;28;20427;-77
2022/06/04 01:34:09;;;;;;;0.77;0.50;;;11.00;99.90;;;;;;5049300;28;20017;-76
2022/06/04 01:36:54;;;;;;;1.02;0.50;;;11.10;99.90;;;;;;5051585;28;20048;-72
2022/06/04 01:41:03;;;;;;;0.65;0.47;;;11.20;99.90;;;;;;5057578;28;20037;-75
2022/06/04 01:42:19;;;;;;;1.83;0.60;;;11.20;99.90;;;;;;5057777;28;20025;-72
2022/06/04 01:44:49;;;;;;;1.02;0.40;;;11.30;99.90;;;;;;5068032;28;20458;-72
2022/06/04 01:47:17;;;;;;;1.08;0.50;;;11.30;99.90;;;;;;5057228;28;20162;-72
2022/06/04 01:49:54;;;;;;;2.92;1.25;;;11.30;99.90;;;;;;5064128;28;20029;-72
2022/06/04 01:52:32;;;;;;;2.28;0.60;;;11.40;99.90;;;;;;5070276;28;20055;-71
2022/06/04 01:55:08;;;;;;;2.28;0.50;;;11.40;99.90;;;;;;5058512;28;20485;-80
2022/06/04 01:57:35;;;;;;;1.48;0.82;;;11.40;99.90;;;;;;5066508;28;20039;-74
2022/06/04 02:00:15;;;;;;;0.77;0.40;;;11.50;99.90;;;;;;5066013;28;20076;-72
2022/06/04 02:03:10;;;;;;;0.85;0.40;;;11.50;99.90;;;;;;5056794;28;20067;-71
2022/06/04 02:05:52;;;;;;;1.00;0.50;;;11.50;99.90;;;;;;5064771;28;20025;-71
2022/06/04 02:08:28;;;;;;;2.45;0.70;;;11.50;99.90;;;;;;5067828;28;20025;-73
2022/06/04 02:11:27;;;;;;;1.05;0.52;;;11.70;99.90;;;;;;5056978;28;20034;-75
2022/06/04 02:13:59;;;;;;;0.85;0.40;;;11.70;99.90;;;;;;5025653;28;20029;-71
2022/06/04 02:16:41;;;;;;;1.15;0.50;;;11.80;99.90;;;;;;5067670;28;20032;-75
2022/06/04 02:19:09;;;;;;;1.00;0.40;;;11.80;99.90;;;;;;5043043;28;20064;-71
2022/06/04 02:21:37;;;;;;;0.20;0.20;;;11.90;99.90;;;;;;5065334;28;20114;-74
2022/06/04 02:24:06;;;;;;;0.98;0.40;;;11.90;99.90;;;;;;5065906;28;20039;-72
2022/06/04 02:26:34;;;;;;;0.90;0.60;;;11.90;99.90;;;;;;5056173;28;20110;-72
2022/06/04 02:29:03;;;;;;;0.63;0.60;;;12.00;99.90;;;;;;5041426;28;20033;-76
2022/06/04 02:31:36;;;;;;;0.70;0.30;;;12.00;99.90;;;;;;5068112;28;20078;-72
2022/06/04 02:34:06;;;;;;;0.50;0.40;;;12.00;99.90;;;;;;5067701;28;20017;-73
2022/06/04 02:37:03;;;;;;;0.90;0.50;;;12.00;99.90;;;;;;5058588;28;20502;-71
2022/06/04 02:39:39;;;;;;;;;;;12.00;99.90;;;;;;5041866;28;20109;-76
2022/06/04 02:42:45;;;;;;;1.65;0.32;;;12.10;99.90;;;;;;5062686;28;19921;-71
2022/06/04 02:45:27;;;;;;;0.60;0.40;;;12.20;99.90;;;;;;5045329;28;20040;-72
2022/06/04 02:48:05;;;;;;;1.10;0.40;;;12.20;99.90;;;;;;5064041;28;20029;-75
2022/06/04 02:50:54;;;;;;;0.85;0.40;;;12.20;99.90;;;;;;5070987;28;20020;-73
2022/06/04 02:53:22;;;;;;;0.70;0.43;;;12.20;99.90;;;;;;5047253;28;20089;-72
2022/06/04 02:56:00;;;;;;;0.50;0.35;;;12.20;99.90;;;;;;5064409;28;20029;-74
2022/06/04 02:58:31;;;;;;;1.15;0.43;;;12.30;99.90;;;;;;5070047;28;20037;-75
2022/06/04 03:00:59;;;;;;;0.43;0.40;;;12.30;99.90;;;;;;5057460;28;20056;-71
2022/06/04 03:03:27;;;;;;;1.95;0.65;;;12.40;99.90;;;;;;5066152;28;20039;-74
2022/06/04 03:05:58;;;;;;;1.35;0.60;;;12.40;99.90;;;;;;5065655;28;20024;-76
2022/06/04 03:08:28;;;;;;;1.70;0.73;;;12.50;99.90;;;;;;5059601;28;20154;-77
2022/06/04 03:10:56;;;;;;;1.00;0.35;;;12.50;99.90;;;;;;5086252;28;20025;-72
2022/06/04 03:13:24;;;;;;;2.17;0.60;;;12.50;99.90;;;;;;5061043;28;20032;-72
2022/06/04 03:15:51;;;;;;;1.38;0.52;;;12.60;99.90;;;;;;5064127;28;20540;-76
2022/06/04 03:18:19;;;;;;;1.38;0.40;;;12.60;99.90;;;;;;5068619;28;20024;-77
2022/06/04 03:20:47;;;;;;;0.98;0.55;;;12.70;99.90;;;;;;5057673;28;20087;-72
2022/06/04 03:23:15;;;;;;;1.30;0.70;;;12.70;99.90;;;;;;5068785;28;20123;-73
2022/06/04 03:25:43;;;;;;;1.42;0.60;;;12.80;99.90;;;;;;5063522;28;20020;-75
2022/06/04 03:28:10;;;;;;;3.78;0.70;;;12.80;99.90;;;;;;5061581;28;20032;-71
2022/06/04 03:30:39;;;;;;;1.80;0.90;;;12.90;99.90;;;;;;5070455;28;20028;-73
2022/06/04 03:33:06;;;;;;;1.15;0.63;;;12.90;99.90;;;;;;5058145;28;20505;-76
2022/06/04 03:35:34;;;;;;;1.27;0.60;;;12.90;99.90;;;;;;5065151;28;20037;-75
2022/06/04 03:38:01;;;;;;;0.73;0.40;;;12.90;99.90;;;;;;5065593;28;20436;-76
2022/06/04 03:40:28;;;;;;;2.47;0.80;;;13.00;99.90;;;;;;5058274;28;20029;-72
2022/06/04 03:42:56;;;;;;;1.17;0.38;;;13.00;99.90;;;;;;5070668;28;20175;-76
2022/06/04 03:45:26;;;;;;;1.15;0.43;;;13.00;99.90;;;;;;5060531;28;20074;-73
2022/06/04 03:47:57;;;;;;;0.50;0.30;;;13.00;99.90;;;;;;5062993;28;20052;-76
2022/06/04 03:50:26;;;;;;;1.35;0.60;;;13.00;99.90;;;;;;5068910;28;20082;-73
2022/06/04 03:52:53;;;;;;;0.55;0.38;;;13.10;99.90;;;;;;5056970;28;20029;-72
2022/06/04 03:55:21;;;;;;;1.17;0.55;;;13.10;99.90;;;;;;5067441;28;20052;-76
2022/06/04 03:57:50;;;;;;;4.43;2.28;;;13.10;99.90;;;;;;5063583;28;20465;-72
2022/06/04 04:00:17;;;;;;;2.83;0.60;;;13.10;99.90;;;;;;5059592;28;20112;-76
2022/06/04 04:03:00;;;;;;;0.95;0.60;;;13.20;99.90;;;;;;5069736;28;20512;-73
2022/06/04 04:05:30;;;;;;;6.60;0.50;;;13.20;99.90;;;;;;5060573;28;20055;-75
2022/06/04 04:07:59;;;;;;;0.65;0.30;;;13.20;99.90;;;;;;5062412;28;20040;-77
2022/06/04 04:10:29;;;;;;;0.60;0.30;;;13.20;99.90;;;;;;5068638;28;20028;-76
2022/06/04 04:12:57;;;;;;;0.90;0.40;;;13.10;99.90;;;;;;5055337;28;20527;-77
2022/06/04 04:15:25;;;;;;;0.40;0.32;;;13.20;99.90;;;;;;5066410;28;20045;-77
2022/06/04 04:17:54;;;;;;;2.92;0.50;;;13.20;99.90;;;;;;5063801;28;20034;-73
2022/06/04 04:20:24;;;;;;;1.80;0.70;;;13.20;99.90;;;;;;5058070;28;20040;-73
2022/06/04 04:22:51;;;;;;;1.42;0.63;;;13.20;99.90;;;;;;5053726;28;20029;-76
2022/06/04 04:25:21;;;;;;;0.82;0.45;;;13.20;99.90;;;;;;5053314;28;20017;-77
2022/06/04 04:27:49;;;;;;;0.80;0.40;;;13.20;99.90;;;;;;5050888;28;20024;-73
2022/06/04 04:30:19;;;;;;;0.70;0.28;;;13.30;99.90;;;;;;5053119;28;20028;-73
2022/06/04 04:32:47;;;;;;;1.17;0.77;;;13.20;99.90;;;;;;5051264;28;20028;-75
2022/06/04 04:35:18;;;;;;;0.40;0.30;;;13.30;99.90;;;;;;5054105;28;20024;-76
2022/06/04 04:37:46;;;;;;;1.45;1.00;;;13.30;99.90;;;;;;5054342;28;20056;-75
2022/06/04 04:40:16;;;;;;;2.15;0.55;;;13.20;99.90;;;;;;5054467;28;20028;-73
2022/06/04 04:42:44;;;;;;;1.52;0.50;;;13.20;99.90;;;;;;5055136;28;20021;-73
2022/06/04 04:45:12;;;;;;;1.75;0.50;;;13.20;99.90;;;;;;5055175;28;20029;-75
2022/06/04 04:47:41;;;;;;;0.40;0.28;;;13.20;99.90;;;;;;5051751;28;20371;-73
2022/06/04 04:50:14;;;;;;;1.20;0.50;;;13.10;99.90;;;;;;5054198;28;20070;-72
2022/06/04 04:52:42;;;;;;;1.83;0.50;;;13.10;99.90;;;;;;5052743;28;20447;-74
2022/06/04 04:55:09;;;;;;;1.00;0.57;;;13.20;99.90;;;;;;5062739;28;20058;-72
2022/06/04 04:57:36;;;;;;;1.05;0.30;;;13.20;99.90;;;;;;5050423;28;20108;-72
2022/06/04 05:00:06;;;;;;;1.83;0.55;;;13.20;99.90;;;;;;5050702;28;20060;-75
2022/06/04 05:02:34;;;;;;;1.85;0.77;;;13.20;99.90;;;;;;5046948;28;20037;-74
2022/06/04 05:05:02;;;;;;;3.38;0.30;;;13.20;99.90;;;;;;5050351;28;20024;-71
2022/06/04 05:07:30;;;;;;;1.55;0.50;;;13.20;99.90;;;;;;5051049;28;20029;-75
2022/06/04 05:09:57;;;;;;;0.47;0.30;;;13.20;99.90;;;;;;5049270;28;20028;-71
2022/06/04 05:12:24;;;;;;;1.02;0.63;;;13.20;99.90;;;;;;5048256;28;20026;-73
2022/06/04 05:14:52;;;;;;;1.08;0.43;;;13.30;99.90;;;;;;5050124;28;20154;-71
2022/06/04 05:17:20;;;;;;;2.10;0.80;;;13.20;99.90;;;;;;5049067;28;20021;-76
2022/06/04 05:19:47;;;;;;;1.20;0.40;;;13.20;99.90;;;;;;5051074;28;20017;-76
2022/06/04 05:22:14;;;;;;;1.58;0.40;;;13.20;99.90;;;;;;5050329;28;20033;-76
2022/06/04 05:24:43;;;;;;;0.85;0.35;;;13.20;99.90;;;;;;5048753;28;20027;-75
2022/06/04 05:27:11;;;;;;;0.80;0.45;;;13.20;99.90;;;;;;5047881;28;20072;-72
2022/06/04 05:29:39;;;;;;;0.57;0.50;;;13.20;99.90;;;;;;5049459;28;20013;-75
2022/06/04 05:32:09;;;;;;;1.38;0.70;;;13.20;99.90;;;;;;5050605;28;20021;-72
2022/06/04 05:34:37;;;;;;;2.10;0.40;;;13.20;99.90;;;;;;5050582;28;20032;-76
2022/06/04 05:37:05;;;;;;;1.33;0.93;;;13.10;99.90;;;;;;5050590;28;20130;-72
2022/06/04 05:39:33;;;;;;;0.70;0.30;;;13.10;99.90;;;;;;5045609;28;20180;-73
2022/06/04 05:42:02;;;;;;;1.88;0.40;;;13.10;99.90;;;;;;5048742;28;20036;-73
2022/06/04 05:44:30;;;;;;;0.77;0.50;;;13.00;99.90;;;;;;5048262;28;20030;-76
2022/06/04 05:46:58;;;;;;;0.88;0.40;;;13.00;99.90;;;;;;5050303;28;20032;-75
2022/06/04 05:49:25;;;;;;;0.45;0.25;;;13.00;99.90;;;;;;5046492;28;20478;-74
2022/06/04 05:51:54;;;;;;;2.50;0.50;;;12.90;99.90;;;;;;5050317;28;20056;-75
2022/06/04 05:54:21;;;;;;;0.75;0.35;;;12.90;99.90;;;;;;5050352;28;20064;-71
2022/06/04 05:56:51;;;;;;;2.15;0.50;;;12.80;99.90;;;;;;5047322;28;20474;-75
2022/06/04 05:59:21;;;;;;;0.77;0.40;;;12.80;99.90;;;;;;5048837;28;20021;-73
2022/06/04 06:01:49;;;;;;;1.38;0.65;;;12.70;99.90;;;;;;5047386;28;20133;-71
2022/06/04 06:04:19;;;;;;;0.47;0.22;;;12.70;99.90;;;;;;5049575;28;20017;-74
2022/06/04 06:06:49;;;;;;;0.55;0.40;;;12.60;99.90;;;;;;5046613;28;20025;-71
2022/06/04 06:09:20;;;;;;;1.10;0.40;;;12.60;99.90;;;;;;5048622;28;20171;-75
2022/06/04 06:11:48;;;;;;;1.75;0.70;;;12.50;99.90;;;;;;5047116;28;20025;-71
2022/06/04 06:14:16;;;;;;;0.82;0.40;;;12.50;99.90;;;;;;5049371;28;20033;-75
2022/06/04 06:16:47;;;;;;;1.10;0.73;;;12.40;99.90;;;;;;5049950;28;20013;-76
2022/06/04 06:19:16;;;;;;;0.70;0.60;;;12.40;99.90;;;;;;5050253;28;20025;-76
2022/06/04 06:21:44;;;;;;;1.75;0.35;;;12.30;99.90;;;;;;5049441;28;20021;-75
2022/06/04 06:24:16;;;;;;;3.33;0.50;;;12.30;99.90;;;;;;5045922;28;20108;-74
2022/06/04 06:26:48;;;;;;;1.02;0.57;;;12.30;99.90;;;;;;5048260;28;20355;-74
2022/06/04 06:29:17;;;;;;;0.47;0.47;;;12.20;99.90;;;;;;5047952;28;20509;-73
2022/06/04 06:31:45;;;;;;;0.90;0.40;;;12.20;99.90;;;;;;5048521;28;20078;-73
2022/06/04 06:34:13;;;;;;;0.40;0.30;;;12.10;99.90;;;;;;5048111;28;20389;-71
2022/06/04 06:36:41;;;;;;;0.65;0.40;;;12.10;99.90;;;;;;5051434;28;20049;-75
2022/06/04 06:39:10;;;;;;;1.30;0.88;;;12.00;99.90;;;;;;5051112;28;20021;-74
2022/06/04 06:41:37;;;;;;;0.95;0.50;;;11.90;99.90;;;;;;5050832;28;20021;-74
2022/06/04 06:44:05;;;;;;;1.98;0.68;;;11.90;99.90;;;;;;5051950;28;20082;-74
2022/06/04 06:46:37;;;;;;;0.47;0.40;;;11.80;99.90;;;;;;5052979;28;20524;-71
2022/06/04 06:49:12;;;;;;;1.98;0.63;;;11.80;99.90;;;;;;5052216;28;20096;-74
2022/06/04 06:51:49;;;;;;;0.50;0.50;;;11.70;99.90;;;;;;5052371;28;20032;-75
2022/06/04 06:54:19;;;;;;;1.58;0.95;;;11.60;99.90;;;;;;5052039;28;20081;-74
2022/06/04 06:56:49;;;;;;;3.63;0.50;;;11.50;99.90;;;;;;5050515;28;20036;-72
2022/06/04 06:59:20;;;;;;;0.98;0.43;;;11.50;99.90;;;;;;5050886;28;20367;-72
2022/06/04 07:01:49;;;;;;;2.08;0.40;;;11.40;99.90;;;;;;5052513;28;20044;-72
2022/06/04 07:04:18;;;;;;;3.53;0.80;;;11.30;99.90;;;;;;5051565;28;20025;-71
2022/06/04 07:06:48;;;;;;;1.83;0.60;;;11.30;99.90;;;;;;5050533;28;20033;-75
2022/06/04 07:09:21;;;;;;;2.45;1.13;;;11.20;99.90;;;;;;5051853;28;20489;-75
2022/06/04 07:11:49;;;;;;;3.20;0.52;;;11.20;99.90;;;;;;5051582;28;20112;-75
2022/06/04 07:14:18;;;;;;;0.98;0.60;;;11.10;99.90;;;;;;5052830;28;20028;-72
2022/06/04 07:16:45;;;;;;;1.73;0.90;;;11.10;99.90;;;;;;5057171;28;20111;-76
2022/06/04 07:19:14;;;;;;;1.95;0.63;;;11.10;99.90;;;;;;5054482;28;20393;-74
2022/06/04 07:21:42;;;;;;;2.30;0.80;;;11.00;99.90;;;;;;5053857;28;20053;-71
2022/06/04 07:24:11;;;;;;;1.52;0.80;;;11.00;99.90;;;;;;5053304;28;20516;-76
2022/06/04 07:26:39;;;;;;;1.30;0.80;;;11.00;99.90;;;;;;5053975;28;20424;-74
2022/06/04 07:29:07;;;;;;;2.53;1.10;;;11.00;99.90;;;;;;5041353;28;20482;-72
2022/06/04 07:31:35;;;;;;;2.50;1.10;;;10.90;99.90;;;;;;5034836;28;20057;-74
2022/06/04 07:34:04;;;;;;;5.80;0.73;;;10.90;99.90;;;;;;5050434;28;20104;-76
2022/06/04 07:36:35;;;;;;;1.90;0.85;;;10.90;99.90;;;;;;5048502;28;20048;-74
2022/06/04 07:39:05;;;;;;;1.48;0.88;;;10.80;99.90;;;;;;5051743;28;20025;-75
2022/06/04 07:41:38;;;;;;;2.28;0.73;;;10.80;99.90;;;;;;5049618;28;20070;-73
2022/06/04 07:44:09;;;;;;;1.30;0.90;;;10.70;99.90;;;;;;5050288;28;20025;-77
2022/06/04 07:46:37;;;;;;;2.65;1.05;;;10.70;99.90;;;;;;5050720;28;20030;-76
2022/06/04 07:49:06;;;;;;;3.08;1.10;;;10.70;99.90;;;;;;5055774;28;20032;-76
2022/06/04 07:51:36;;;;;;;3.22;1.00;;;10.60;99.90;;;;;;5069762;28;20028;-77
2022/06/04 07:54:04;;;;;;;1.48;0.95;;;10.60;99.90;;;;;;5062976;28;20029;-72
2022/06/04 07:56:32;;;;;;;1.65;0.98;;;10.60;99.90;;;;;;5058610;28;20029;-77
2022/06/04 07:58:59;;;;;;;4.55;1.20;;;10.60;99.90;;;;;;5056838;28;20477;-76
2022/06/04 08:01:28;;;;;;;1.52;1.00;;;10.50;99.90;;;;;;5060278;28;20048;-73
2022/06/04 08:03:56;;;;;;;2.42;1.38;;;10.50;99.90;;;;;;5060809;28;20100;-75
2022/06/04 08:06:24;;;;;;;1.58;1.15;;;10.50;99.90;;;;;;5052378;28;20013;-76
2022/06/04 08:08:58;;;;;;;2.28;1.08;;;10.50;99.90;;;;;;5055592;28;20059;-76
2022/06/04 08:11:34;;;;;;;2.03;1.00;;;10.50;99.90;;;;;;5050549;28;20021;-77
2022/06/04 08:14:11;;;;;;;2.47;1.38;;;10.50;99.90;;;;;;5052494;28;20111;-76
2022/06/04 08:16:41;;;;;;;1.52;1.10;;;10.50;99.90;;;;;;5050923;28;20124;-73
2022/06/04 08:19:09;;;;;;;1.52;0.93;;;10.50;99.90;;;;;;5051503;28;20124;-76
2022/06/04 08:21:39;;;;;;;1.98;1.20;;;10.50;99.90;;;;;;5052454;28;20025;-76
2022/06/04 08:24:08;;;;;;;4.53;1.13;;;10.50;99.90;;;;;;5050621;28;20086;-76
2022/06/04 08:26:36;;;;;;;4.38;1.10;;;10.60;99.90;;;;;;5053804;28;20028;-72
2022/06/04 08:29:04;;;;;;;1.98;1.05;;;10.50;99.90;;;;;;5051538;28;20024;-71
2022/06/04 08:31:31;;;;;;;2.10;1.30;;;10.50;99.90;;;;;;5048641;28;20029;-72
2022/06/04 08:33:59;;;;;;;3.13;1.17;;;10.50;99.90;;;;;;5050139;28;20120;-75
2022/06/04 08:36:26;;;;;;;1.95;1.20;;;10.50;99.90;;;;;;5049241;28;20041;-75
2022/06/04 08:38:54;;;;;;;1.98;1.00;;;10.50;99.90;;;;;;5050439;28;20045;-74
2022/06/04 08:41:46;;;;;;;2.58;0.95;;;10.50;99.90;;;;;;5049275;28;20021;-74
2022/06/04 08:44:20;;;;;;;1.70;1.10;;;10.50;99.90;;;;;;5040555;28;20159;-73
2022/06/04 08:46:59;;;;;;;2.00;1.30;;;10.40;99.90;;;;;;5049974;28;20515;-73
2022/06/04 08:49:39;;;;;;;2.10;1.15;;;10.40;99.90;;;;;;5050375;28;20097;-76
2022/06/04 08:52:40;;;;;;;1.60;1.10;;;10.40;99.90;;;;;;5050526;28;20052;-72
2022/06/04 08:58:24;;;;;;;1.92;1.27;;;10.30;99.90;;;;;;5050047;28;20067;-76
2022/06/04 09:01:07;;;;;;;1.85;1.10;;;10.30;99.90;;;;;;5051380;28;20025;-77
2022/06/04 09:03:50;;;;;;;1.33;0.90;;;10.20;99.90;;;;;;5051586;28;20039;-74
2022/06/04 09:06:17;;;;;;;3.58;1.00;;;10.20;99.90;;;;;;5049216;28;20032;-74
2022/06/04 09:08:54;;;;;;;2.90;0.98;;;10.20;99.90;;;;;;5048458;28;20082;-75
2022/06/04 09:11:29;;;;;;;2.42;1.05;;;10.20;99.90;;;;;;5063437;28;20025;-74
2022/06/04 09:14:17;;;;;;;;;;;10.30;99.90;;;;;;5051345;28;20533;-72
2022/06/04 09:17:05;;;;;;;1.65;1.00;;;10.20;99.90;;;;;;5050203;28;20246;-72
2022/06/04 09:19:38;;;;;;;2.17;1.13;;;10.20;99.90;;;;;;5048847;28;20045;-71
2022/06/04 09:22:21;;;;;;;1.60;0.95;;;10.20;99.90;;;;;;5047622;28;20112;-72
2022/06/04 09:24:49;;;;;;;4.00;1.05;;;10.20;99.90;;;;;;5049394;28;20028;-72
2022/06/04 09:27:17;;;;;;;0.98;0.60;;;10.20;99.90;;;;;;5050171;28;20118;-75
2022/06/04 09:30:10;;;;;;;1.45;0.88;;;10.20;99.90;;;;;;5050244;28;20035;-72
2022/06/04 09:32:50;;;;;;;1.38;0.80;;;10.10;99.90;;;;;;5050213;28;20025;-72
2022/06/04 09:35:19;;;;;;;1.92;1.20;;;10.10;99.90;;;;;;5050670;28;20063;-73
2022/06/04 09:37:48;;;;;;;3.55;1.05;;;10.10;99.90;;;;;;5048893;28;20424;-76
2022/06/04 09:40:34;;;;;;;1.38;0.90;;;10.10;99.90;;;;;;5049189;28;20029;-76
2022/06/04 09:43:17;;;;;;;1.50;0.90;;;10.10;99.90;;;;;;5047706;28;20033;-76
2022/06/04 09:45:53;;;;;;;1.55;0.90;;;10.10;99.90;;;;;;5049653;28;20025;-73
2022/06/04 09:48:25;;;;;;;3.40;0.98;;;10.00;99.90;;;;;;5049865;28;20060;-71
2022/06/04 09:50:56;;;;;;;2.42;1.10;;;10.00;99.90;;;;;;5050044;28;20371;-75
2022/06/04 09:53:27;;;;;;;2.08;0.95;;;10.00;99.90;;;;;;5048701;28;20079;-73
2022/06/04 09:56:26;;;;;;;1.77;1.00;;;10.00;99.90;;;;;;5047022;28;20017;-75
2022/06/04 09:58:53;;;;;;;2.85;0.77;;;10.00;99.90;;;;;;5048462;28;20032;-75
2022/06/04 10:01:23;;;;;;;4.13;1.30;;;10.00;99.90;;;;;;5048443;28;20033;-72
2022/06/04 10:04:04;;;;;;;5.10;1.05;;;10.00;99.90;;;;;;5050206;28;20474;-71
2022/06/04 10:06:31;;;;;;;5.75;2.03;;;10.00;99.90;;;;;;5048030;28;20435;-75
2022/06/04 10:11:57;;;;;;;1.38;1.08;;;9.90;99.90;;;;;;5052698;28;20044;-73
2022/06/04 10:14:45;;;;;;;2.22;0.68;;;9.90;99.90;;;;;;5053600;28;20083;-76
2022/06/04 10:17:32;;;;;;;2.45;1.10;;;9.90;99.90;;;;;;5053908;28;20017;-77
2022/06/04 10:19:59;;;;;;;1.67;1.10;;;9.90;99.90;;;;;;5051485;28;20051;-73
2022/06/04 10:22:27;;;;;;;4.10;1.27;;;9.90;99.90;;;;;;5050344;28;20029;-77
2022/06/04 10:25:03;;;;;;;1.75;0.90;;;9.90;99.90;;;;;;5052497;28;20028;-73
2022/06/04 10:27:48;;;;;;;2.05;1.08;;;9.90;99.90;;;;;;5051252;28;20032;-75
2022/06/04 10:30:50;;;;;;;3.38;0.65;;;9.90;99.90;;;;;;5052704;28;20119;-75
2022/06/04 10:33:46;;;;;;;0.95;0.60;;;9.80;99.90;;;;;;5053876;28;20497;-76
2022/06/04 10:36:50;;;;;;;2.13;1.38;;;9.80;99.90;;;;;;5050176;28;20521;-76
2022/06/04 10:39:19;;;;;;;1.77;0.85;;;9.90;99.90;;;;;;5051781;28;20429;-73
2022/06/04 10:41:58;;;;;;;2.33;1.05;;;9.80;99.90;;;;;;5052649;28;20031;-74
2022/06/04 10:44:34;;;;;;;4.20;0.75;;;9.80;99.90;;;;;;5051770;28;20025;-72
2022/06/04 10:47:32;;;;;;;0.52;0.43;;;9.80;99.90;;;;;;5051709;28;20041;-76
2022/06/04 10:50:21;;;;;;;2.30;0.70;;;9.80;99.90;;;;;;5052078;28;20032;-76
2022/06/04 10:52:57;;;;;;;1.98;0.60;;;9.80;99.90;;;;;;5051722;28;20382;-72
2022/06/04 10:55:42;;;;;;;2.88;0.73;;;9.80;99.90;;;;;;5053398;28;20017;-77
2022/06/04 10:58:23;;;;;;;3.13;0.50;;;9.80;99.90;;;;;;5051808;28;20033;-73
2022/06/04 11:00:59;;;;;;;0.80;0.55;;;9.80;99.90;;;;;;5050711;28;20425;-75
2022/06/04 11:03:37;;;;;;;1.77;1.00;;;9.80;99.90;;;;;;5053001;28;20025;-77
2022/06/04 11:06:09;;;;;;;2.92;0.90;;;9.80;99.90;;;;;;5051166;28;20064;-72
2022/06/04 11:08:43;;;;;;;1.05;0.60;;;9.80;99.90;;;;;;5049678;28;20494;-76
2022/06/04 11:11:23;;;;;;;3.40;0.70;;;9.70;99.90;;;;;;5051062;28;20508;-77
2022/06/04 11:14:00;;;;;;;1.45;0.60;;;9.70;99.90;;;;;;5048705;28;20337;-77
2022/06/04 11:16:43;;;;;;;2.38;0.68;;;9.70;99.90;;;;;;5049524;28;20156;-77
2022/06/04 11:19:27;;;;;;;0.93;0.60;;;9.70;99.90;;;;;;5051528;28;20025;-77
2022/06/04 11:21:57;;;;;;;2.28;0.60;;;9.70;99.90;;;;;;5051285;28;20036;-76
2022/06/04 11:24:44;;;;;;;1.40;0.60;;;9.70;99.90;;;;;;5050389;28;20028;-76
2022/06/04 11:27:25;;;;;;;1.20;0.57;;;9.70;99.90;;;;;;5049364;28;20497;-74
2022/06/04 11:29:54;;;;;;;0.68;0.35;;;9.60;99.90;;;;;;5048866;28;20104;-76
2022/06/04 11:32:45;;;;;;;0.68;0.50;;;9.60;99.90;;;;;;5050974;28;20025;-74
2022/06/04 11:35:18;;;;;;;1.70;0.70;;;9.60;99.90;;;;;;5045097;28;20037;-72
2022/06/04 11:38:05;;;;;;;1.45;0.60;;;9.60;99.90;;;;;;5051351;28;20440;-76
2022/06/04 11:40:45;;;;;;;1.00;0.63;;;9.60;99.90;;;;;;5051012;28;20029;-72
2022/06/04 11:43:31;;;;;;;1.33;0.80;;;9.50;99.90;;;;;;5050652;28;20033;-76
2022/06/04 11:45:58;;;;;;;0.80;0.52;;;9.50;99.90;;;;;;5051358;28;20025;-77
2022/06/04 11:48:48;;;;;;;0.63;0.60;;;9.50;99.90;;;;;;5051694;28;20032;-74
2022/06/04 11:51:40;;;;;;;1.83;0.80;;;9.50;99.90;;;;;;5064952;28;20105;-72
2022/06/04 11:54:29;;;;;;;0.60;0.60;;;9.40;99.90;;;;;;5050689;28;20033;-76
2022/06/04 11:57:27;;;;;;;1.52;0.50;;;9.40;99.90;;;;;;5049744;28;20047;-77
2022/06/04 12:00:01;;;;;;;4.20;0.60;;;9.40;99.90;;;;;;5050767;28;20373;-75
2022/06/04 12:02:36;;;;;;;1.42;0.63;;;9.40;99.90;;;;;;5051302;28;20045;-76
2022/06/04 12:05:26;;;;;;;0.82;0.65;;;9.40;99.90;;;;;;5051047;28;20678;-73
2022/06/04 12:07:55;;;;;;;1.75;0.73;;;9.40;99.90;;;;;;5051991;28;20031;-75
2022/06/04 12:10:45;;;;;;;0.50;0.47;;;9.40;99.90;;;;;;5049608;28;20107;-73
2022/06/04 12:13:32;;;;;;;1.10;0.80;;;9.30;99.90;;;;;;5051654;28;20032;-76
2022/06/04 12:16:21;;;;;;;1.25;1.00;;;9.30;99.90;;;;;;5050056;28;20047;-77
2022/06/04 12:24:15;;;;;;;1.75;0.75;;;9.30;99.90;;;;;;5050434;28;20082;-77
2022/06/04 12:25:09;;;;;;;1.73;0.85;;;9.20;99.90;;;;;;5049863;28;20106;-76
2022/06/04 12:27:52;;;;;;;0.73;0.73;;;9.20;99.90;;;;;;5048440;28;20025;-77
2022/06/04 12:30:38;;;;;;;0.90;0.60;;;9.10;99.90;;;;;;5048886;28;20053;-72
2022/06/04 12:33:29;;;;;;;0.75;0.47;;;9.10;99.90;;;;;;5046939;28;20151;-74
2022/06/04 12:36:01;;;;;;;1.38;0.77;;;9.10;99.90;;;;;;5048684;28;20041;-73
2022/06/04 12:38:29;;;;;;;1.00;0.77;;;9.10;99.90;;;;;;5048202;28;20083;-76
2022/06/04 12:41:36;;;;;;;2.42;1.23;;;9.00;99.90;;;;;;5050914;28;20031;-73
2022/06/04 12:44:04;;;;;;;1.83;0.85;;;9.00;99.90;;;;;;5044954;28;20041;-73
2022/06/04 12:46:34;;;;;;;7.57;0.90;;;9.00;99.90;;;;;;5049941;28;20031;-77
2022/06/04 12:49:21;;;;;;;2.10;1.15;;;9.00;99.90;;;;;;5049258;28;20025;-74
2022/06/04 12:52:13;;;;;;;4.38;1.15;;;9.00;99.90;;;;;;5039327;28;20110;-75
2022/06/04 12:54:47;;;;;;;4.13;0.85;;;9.00;99.90;;;;;;5050884;28;20066;-73
2022/06/04 12:57:50;;;;;;;1.58;0.80;;;9.00;99.90;;;;;;5048179;28;20074;-76
2022/06/04 13:00:18;;;;;;;1.38;0.80;;;9.00;99.90;;;;;;5048770;28;20123;-73
2022/06/04 13:03:10;;;;;;;2.38;0.70;;;9.00;99.90;;;;;;5048456;28;20061;-72
2022/06/04 13:06:03;;;;;;;1.42;0.70;;;9.00;99.90;;;;;;5048370;28;20036;-71
2022/06/04 13:08:48;;;;;;;1.30;0.90;;;9.00;99.90;;;;;;5050518;28;20017;-75
2022/06/04 13:11:28;;;;;;;2.23;0.80;;;9.00;99.90;;;;;;5051103;28;20024;-75
2022/06/04 13:14:06;;;;;;;2.30;0.63;;;9.00;99.90;;;;;;5046487;28;20543;-75
2022/06/04 13:16:45;;;;;;;1.83;0.57;;;9.00;99.90;;;;;;5044131;28;20104;-76
2022/06/04 13:19:32;;;;;;;1.33;0.95;;;9.00;99.90;;;;;;5047047;28;20064;-75
2022/06/04 13:22:01;;;;;;;1.63;0.60;;;9.00;99.90;;;;;;5049527;28;20021;-72
2022/06/04 13:24:39;;;;;;;1.85;0.52;;;9.00;99.90;;;;;;5049846;28;20398;-74
2022/06/04 13:27:12;;;;;;;0.75;0.63;;;9.00;99.90;;;;;;5049970;28;20028;-75
2022/06/04 13:29:40;;;;;;;5.57;0.68;;;9.00;99.90;;;;;;5050849;28;20025;-73
2022/06/04 13:32:20;;;;;;;2.50;0.60;;;9.00;99.90;;;;;;5050972;28;20079;-72
2022/06/04 13:34:49;;;;;;;1.35;0.50;;;8.90;99.90;;;;;;5050233;28;20075;-75
2022/06/04 13:37:22;;;;;;;1.02;0.70;;;8.90;99.90;;;;;;5050396;28;20037;-75
2022/06/04 13:39:52;;;;;;;2.10;1.02;;;8.90;99.90;;;;;;5052139;28;20028;-75
2022/06/04 13:42:42;;;;;;;1.27;0.63;;;8.90;99.90;;;;;;5052687;28;20037;-76
2022/06/04 13:45:09;;;;;;;0.82;0.52;;;8.90;99.90;;;;;;5056836;28;20021;-72